createdAt,value
2023-02-18T00:01:30.511Z,99853.22
2023-02-18T00:03:59.379Z,99853.38
2023-02-18T00:06:32.102Z,99846.06
2023-02-18T00:09:02.089Z,99822.28
2023-02-18T00:11:30.983Z,99823.13
2023-02-18T00:14:01.538Z,99816.06
2023-02-18T00:16:29.967Z,99814.31
2023-02-18T00:19:03.696Z,99805.31
2023-02-18T00:21:32.169Z,99796.75
2023-02-18T00:23:58.837Z,99788.88
2023-02-18T00:26:26.005Z,99785.97
2023-02-18T00:28:54.504Z,99768.53
2023-02-18T00:31:30.079Z,99764.81
2023-02-18T00:33:59.973Z,99747.94
2023-02-18T00:36:28.411Z,99738.31
2023-02-18T00:38:57.816Z,99745.34
2023-02-18T00:41:26.980Z,99736.34
2023-02-18T00:43:54.610Z,99712.72
2023-02-18T00:46:22.694Z,99716.31
2023-02-18T00:48:49.817Z,99714.66
2023-02-18T00:51:16.974Z,99710.09
2023-02-18T00:53:43.723Z,99689.94
2023-02-18T00:56:10.976Z,99675.81
2023-02-18T00:58:37.932Z,99674.16
2023-02-18T01:01:07.668Z,99666.97
2023-02-18T01:03:36.806Z,99662.44
2023-02-18T01:06:04.879Z,99635.22
2023-02-18T01:08:33.293Z,99639.75
2023-02-18T01:11:01.064Z,99635.75
2023-02-18T01:13:28.933Z,99613.63
2023-02-18T01:15:55.806Z,99619.69
2023-02-18T01:18:24.251Z,99601.19
2023-02-18T01:20:50.908Z,99595.78
2023-02-18T01:23:18.513Z,99592.03
2023-02-18T01:25:45.445Z,99568.94
2023-02-18T01:28:14.210Z,99584.56
2023-02-18T01:30:41.613Z,99572.25
2023-02-18T01:33:09.188Z,99543.09
2023-02-18T01:35:40.057Z,99550.94
2023-02-18T01:38:07.371Z,99550.78
2023-02-18T01:40:35.270Z,99527.87
2023-02-18T01:43:01.990Z,99523.41
2023-02-18T01:45:34.883Z,99507.66
2023-02-18T01:48:10.274Z,99501.31
2023-02-18T01:50:41.791Z,99501.28
2023-02-18T01:53:09.301Z,99493.25
2023-02-18T01:55:38.266Z,99484.31
2023-02-18T01:58:06.376Z,99471.16
2023-02-18T02:00:33.665Z,99474.56
2023-02-18T02:03:00.646Z,99472.75
2023-02-18T02:05:31.965Z,99457.81
2023-02-18T02:08:00.423Z,99446.25
2023-02-18T02:10:42.834Z,99452.25
2023-02-18T02:13:22.956Z,99441.09
2023-02-18T02:15:58.920Z,99435.69
2023-02-18T02:18:53.822Z,99418.56
2023-02-18T02:21:36.997Z,99403.78
2023-02-18T02:24:03.867Z,99411.88
2023-02-18T02:26:49.319Z,99397.78
2023-02-18T02:29:16.127Z,99396.12
2023-02-18T02:31:51.575Z,99372.41
2023-02-18T02:34:30.596Z,99380.34
2023-02-18T02:37:00.082Z,99377.88
2023-02-18T02:39:38.034Z,99369.03
2023-02-18T02:42:24.025Z,99367.38
2023-02-18T02:45:28.389Z,99359.34
2023-02-18T02:48:04.369Z,99345.37
2023-02-18T02:50:52.549Z,99340.13
2023-02-18T02:53:25.252Z,99344.38
2023-02-18T02:55:52.272Z,99336.34
2023-02-18T02:58:19.826Z,99322.84
2023-02-18T03:01:20.976Z,99321.94
2023-02-18T03:04:13.043Z,99313.09
2023-02-18T03:06:50.484Z,99311.12
2023-02-18T03:09:20.426Z,99313.75
2023-02-18T03:12:25.832Z,99299.00
2023-02-18T03:15:12.859Z,99289.06
2023-02-18T03:17:57.202Z,99298.69
2023-02-18T03:20:31.729Z,99293.72
2023-02-18T03:23:04.217Z,99295.91
2023-02-18T03:25:33.843Z,99279.97
2023-02-18T03:28:06.948Z,99277.34
2023-02-18T03:30:42.063Z,99266.84
2023-02-18T03:33:14.092Z,99238.69
2023-02-18T03:35:42.317Z,99255.03
2023-02-18T03:38:19.241Z,99255.72
2023-02-18T03:40:46.906Z,99253.91
2023-02-18T03:43:13.583Z,99237.97
2023-02-18T03:45:40.410Z,99222.19
2023-02-18T03:48:07.513Z,99213.34
2023-02-18T03:50:34.211Z,99221.06
2023-02-18T03:53:00.826Z,99200.97
2023-02-18T03:55:27.750Z,99179.66
2023-02-18T03:57:54.480Z,99175.22
2023-02-18T04:00:21.517Z,99180.38
2023-02-18T04:02:48.679Z,99175.75
2023-02-18T04:05:15.352Z,99172.81
2023-02-18T04:07:42.005Z,99162.16
2023-02-18T04:10:09.573Z,99168.06
2023-02-18T04:12:36.206Z,99157.53
2023-02-18T04:15:02.984Z,99157.06
2023-02-18T04:17:29.865Z,99141.13
2023-02-18T04:19:56.484Z,99140.00
2023-02-18T04:22:23.122Z,99120.09
2023-02-18T04:24:50.018Z,99123.09
2023-02-18T04:27:16.696Z,99124.87
2023-02-18T04:29:43.709Z,99113.41
2023-02-18T04:32:10.631Z,99113.06
2023-02-18T04:34:37.252Z,99097.97
2023-02-18T04:37:03.920Z,99099.75
2023-02-18T04:39:30.817Z,99093.69
2023-02-18T04:41:57.438Z,99099.75
2023-02-18T04:44:24.073Z,99087.63
2023-02-18T04:46:50.990Z,99089.25
2023-02-18T04:49:17.643Z,99068.22
2023-02-18T04:51:44.282Z,99053.72
2023-02-18T04:54:11.208Z,99062.31
2023-02-18T04:56:37.893Z,99066.59
2023-02-18T04:59:04.638Z,99058.69
2023-02-18T05:01:31.585Z,99056.72
2023-02-18T05:03:58.249Z,99058.06
2023-02-18T05:06:24.969Z,99054.28
2023-02-18T05:08:51.820Z,99046.88
2023-02-18T05:11:18.490Z,99034.25
2023-02-18T05:13:45.129Z,99028.66
2023-02-18T05:16:12.446Z,99006.44
2023-02-18T05:18:39.677Z,98993.28
2023-02-18T05:21:06.386Z,99016.47
2023-02-18T05:23:33.465Z,99003.16
2023-02-18T05:26:00.292Z,98975.03
2023-02-18T05:28:26.987Z,99011.38
2023-02-18T05:30:54.002Z,99012.03
2023-02-18T05:33:20.723Z,98998.53
2023-02-18T05:35:48.567Z,98996.59
2023-02-18T05:38:15.586Z,99002.97
2023-02-18T05:40:42.379Z,98990.66
2023-02-18T05:43:09.062Z,98983.06
2023-02-18T05:45:36.298Z,98976.50
2023-02-18T05:48:03.477Z,98978.78
2023-02-18T05:50:30.208Z,98980.44
2023-02-18T05:52:57.093Z,98954.44
2023-02-18T05:55:24.444Z,98938.97
2023-02-18T05:57:51.480Z,98960.97
2023-02-18T06:00:18.840Z,98945.81
2023-02-18T06:02:45.821Z,98943.00
2023-02-18T06:05:12.633Z,98936.72
2023-02-18T06:07:39.257Z,98941.28
2023-02-18T06:10:07.002Z,98932.75
2023-02-18T06:12:33.665Z,98942.37
2023-02-18T06:15:00.310Z,98922.97
2023-02-18T06:17:27.377Z,98927.69
2023-02-18T06:19:54.062Z,98928.25
2023-02-18T06:22:20.806Z,98908.00
2023-02-18T06:24:47.942Z,98932.63
2023-02-18T06:27:14.635Z,98934.72
2023-02-18T06:29:41.346Z,98932.03
2023-02-18T06:32:08.386Z,98940.72
2023-02-18T06:34:35.034Z,98929.09
2023-02-18T06:37:01.629Z,98940.25
2023-02-18T06:39:29.110Z,98934.91
2023-02-18T06:41:55.729Z,98941.09
2023-02-18T06:44:22.333Z,98935.75
2023-02-18T06:46:49.286Z,98928.13
2023-02-18T06:49:15.909Z,98929.84
2023-02-18T06:51:42.568Z,98931.81
2023-02-18T06:54:09.461Z,98923.03
2023-02-18T06:56:36.149Z,98910.13
2023-02-18T06:59:02.881Z,98918.31
2023-02-18T07:01:29.863Z,98938.00
2023-02-18T07:03:56.597Z,98939.91
2023-02-18T07:06:23.372Z,98947.47
2023-02-18T07:08:50.415Z,98973.88
2023-02-18T07:11:17.176Z,98969.97
2023-02-18T07:13:43.798Z,98975.91
2023-02-18T07:16:11.299Z,98962.69
2023-02-18T07:18:38.176Z,98942.56
2023-02-18T07:21:04.982Z,98954.94
2023-02-18T07:23:31.948Z,98948.31
2023-02-18T07:26:10.295Z,98959.22
2023-02-18T07:28:37.561Z,98947.09
2023-02-18T07:31:04.915Z,98958.28
2023-02-18T07:33:32.241Z,98959.22
2023-02-18T07:36:01.024Z,98972.91
2023-02-18T07:38:29.108Z,98969.88
2023-02-18T07:40:56.299Z,98987.19
2023-02-18T07:43:23.447Z,98969.94
2023-02-18T07:45:50.370Z,98977.50
2023-02-18T07:48:17.764Z,98983.72
2023-02-18T07:50:45.976Z,98973.38
2023-02-18T07:53:14.377Z,98989.16
2023-02-18T07:55:50.284Z,98986.16
2023-02-18T07:58:26.164Z,98976.19
2023-02-18T08:00:54.572Z,98966.25
2023-02-18T08:03:27.971Z,98979.09
2023-02-18T08:05:55.480Z,98968.53
2023-02-18T08:08:27.424Z,98964.41
2023-02-18T08:10:56.475Z,98962.34
2023-02-18T08:13:23.662Z,98954.41
2023-02-18T08:15:50.529Z,98950.13
2023-02-18T08:18:22.110Z,98949.37
2023-02-18T08:20:50.423Z,98950.06
2023-02-18T08:23:19.084Z,98944.59
2023-02-18T08:25:50.002Z,98947.63
2023-02-18T08:28:18.411Z,98938.53
2023-02-18T08:30:49.813Z,98953.88
2023-02-18T08:33:16.620Z,98945.84
2023-02-18T08:35:45.435Z,98961.44
2023-02-18T08:38:12.470Z,98980.37
2023-02-18T08:40:40.878Z,98971.06
2023-02-18T08:43:07.816Z,98952.28
2023-02-18T08:45:36.034Z,98969.94
2023-02-18T08:48:17.564Z,98956.03
2023-02-18T08:50:47.920Z,98962.91
2023-02-18T08:53:14.968Z,98962.75
2023-02-18T08:55:41.847Z,98966.50
2023-02-18T08:58:08.884Z,98977.16
2023-02-18T09:00:36.531Z,98969.81
2023-02-18T09:03:03.604Z,98978.84
2023-02-18T09:05:30.638Z,98974.97
2023-02-18T09:07:57.330Z,98954.75
2023-02-18T09:10:24.967Z,98970.50
2023-02-18T09:12:51.870Z,98954.94
2023-02-18T09:15:18.647Z,98964.94
2023-02-18T09:17:45.802Z,98972.69
2023-02-18T09:20:13.400Z,98964.56
2023-02-18T09:22:40.393Z,98955.56
2023-02-18T09:25:07.459Z,98949.87
2023-02-18T09:27:34.397Z,98962.59
2023-02-18T09:30:01.201Z,98960.38
2023-02-18T09:32:34.737Z,98963.44
2023-02-18T09:35:03.882Z,98994.00
2023-02-18T09:37:30.532Z,98993.34
2023-02-18T09:39:57.285Z,98981.00
2023-02-18T09:42:31.200Z,98988.63
2023-02-18T09:45:02.517Z,98974.94
2023-02-18T09:47:44.629Z,98974.56
2023-02-18T09:50:21.130Z,98975.47
2023-02-18T09:52:48.214Z,98974.94
2023-02-18T09:55:17.006Z,98970.25
2023-02-18T09:57:53.558Z,98973.53
2023-02-18T10:00:50.663Z,98953.50
2023-02-18T10:03:23.917Z,98971.28
2023-02-18T10:06:04.294Z,98982.59
2023-02-18T10:08:38.132Z,98970.44
2023-02-18T10:11:12.464Z,98976.78
2023-02-18T10:13:41.421Z,98955.22
2023-02-18T10:16:10.033Z,98973.81
2023-02-18T10:18:42.944Z,98967.47
2023-02-18T10:21:14.093Z,98977.06
2023-02-18T10:23:47.598Z,98964.03
2023-02-18T10:26:17.678Z,98970.53
2023-02-18T10:28:45.459Z,98959.31
2023-02-18T10:31:18.945Z,98962.34
2023-02-18T10:33:53.387Z,98967.25
2023-02-18T10:36:27.579Z,98963.56
2023-02-18T10:39:18.579Z,98976.47
2023-02-18T10:42:14.382Z,98975.00
2023-02-18T10:45:06.850Z,98976.03
2023-02-18T10:47:43.186Z,98971.56
2023-02-18T10:50:19.826Z,98964.00
2023-02-18T10:52:52.280Z,98967.72
2023-02-18T10:55:19.456Z,98958.31
2023-02-18T10:57:47.726Z,98965.13
2023-02-18T11:00:19.601Z,98957.19
2023-02-18T11:02:47.269Z,98969.47
2023-02-18T11:05:25.753Z,98964.19
2023-02-18T11:07:56.889Z,98955.38
2023-02-18T11:10:32.895Z,98946.44
2023-02-18T11:13:07.076Z,98953.59
2023-02-18T11:15:34.539Z,98956.03
2023-02-18T11:18:35.351Z,98940.75
2023-02-18T11:21:21.190Z,98941.37
2023-02-18T11:23:54.144Z,98955.44
2023-02-18T11:26:32.080Z,98950.75
2023-02-18T11:29:21.371Z,98936.84
2023-02-18T11:31:51.329Z,98949.94
2023-02-18T11:34:31.372Z,98943.00
2023-02-18T11:37:28.514Z,98945.88
2023-02-18T11:39:56.261Z,98950.78
2023-02-18T11:42:26.763Z,98943.22
2023-02-18T11:44:59.244Z,98950.78
2023-02-18T11:47:36.128Z,98956.47
2023-02-18T11:50:08.784Z,98942.81
2023-02-18T11:52:38.489Z,98981.38
2023-02-18T11:55:07.427Z,98973.16
2023-02-18T11:57:37.360Z,98971.91
2023-02-18T12:00:15.453Z,98975.16
2023-02-18T12:02:42.995Z,98969.00
2023-02-18T12:05:13.123Z,98969.19
2023-02-18T12:07:49.885Z,98967.91
2023-02-18T12:10:31.960Z,98968.53
2023-02-18T12:13:07.964Z,98968.12
2023-02-18T12:15:47.256Z,98951.81
2023-02-18T12:18:42.650Z,98955.13
2023-02-18T12:21:31.880Z,98959.19
2023-02-18T12:24:23.459Z,98952.28
2023-02-18T12:27:15.538Z,98954.94
2023-02-18T12:29:51.490Z,98959.03
2023-02-18T12:32:46.539Z,98964.53
2023-02-18T12:35:19.482Z,98971.66
2023-02-18T12:38:08.364Z,98955.13
2023-02-18T12:40:55.206Z,98958.59
2023-02-18T12:43:53.422Z,98958.00
2023-02-18T12:46:33.222Z,98959.19
2023-02-18T12:49:06.358Z,98958.97
2023-02-18T12:51:55.093Z,98974.88
2023-02-18T12:54:55.252Z,98988.34
2023-02-18T12:57:36.408Z,98991.41
2023-02-18T13:00:25.390Z,98999.75
2023-02-18T13:03:32.901Z,98995.84
2023-02-18T13:06:14.645Z,99009.69
2023-02-18T13:09:06.795Z,98983.94
2023-02-18T13:11:52.256Z,99012.50
2023-02-18T13:14:24.090Z,99011.25
2023-02-18T13:16:55.778Z,99001.34
2023-02-18T13:19:26.569Z,99021.97
2023-02-18T13:21:58.901Z,99015.59
2023-02-18T13:24:28.655Z,99025.78
2023-02-18T13:27:03.118Z,99030.28
2023-02-18T13:29:42.461Z,99021.28
2023-02-18T13:32:37.213Z,99045.31
2023-02-18T13:35:13.182Z,99040.78
2023-02-18T13:38:01.473Z,99065.38
2023-02-18T13:40:30.899Z,99063.87
2023-02-18T13:43:18.262Z,99061.31
2023-02-18T13:46:19.541Z,99068.66
2023-02-18T13:48:52.376Z,99061.69
2023-02-18T13:51:32.242Z,99081.25
2023-02-18T13:54:17.692Z,99064.91
2023-02-18T13:56:58.391Z,99056.66
2023-02-18T13:59:31.707Z,99058.28
2023-02-18T14:02:21.275Z,99073.06
2023-02-18T14:04:51.628Z,99078.34
2023-02-18T14:07:33.729Z,99073.88
2023-02-18T14:10:04.303Z,99074.88
2023-02-18T14:12:30.954Z,99076.91
2023-02-18T14:14:58.883Z,99079.09
2023-02-18T14:17:34.469Z,99067.19
2023-02-18T14:20:01.086Z,99086.81
2023-02-18T14:22:29.121Z,99067.62
2023-02-18T14:25:02.425Z,99068.75
2023-02-18T14:27:29.525Z,99066.81
2023-02-18T14:30:04.372Z,99068.47
2023-02-18T14:32:31.503Z,99053.88
2023-02-18T14:35:15.205Z,99064.97
2023-02-18T14:38:07.158Z,99072.91
2023-02-18T14:40:55.748Z,99066.00
2023-02-18T14:43:53.293Z,99069.66
2023-02-18T14:46:36.101Z,99076.78
2023-02-18T14:49:11.227Z,99063.91
2023-02-18T14:51:43.176Z,99066.75
2023-02-18T14:54:16.205Z,99055.50
2023-02-18T14:56:54.268Z,99059.28
2023-02-18T14:59:23.900Z,99071.75
2023-02-18T15:01:55.482Z,99065.84
2023-02-18T15:04:24.102Z,99070.69
2023-02-18T15:07:05.424Z,99074.97
2023-02-18T15:09:32.535Z,99057.75
2023-02-18T15:12:05.593Z,99071.72
2023-02-18T15:14:37.516Z,99069.25
2023-02-18T15:17:06.415Z,99069.34
2023-02-18T15:19:47.358Z,99081.63
2023-02-18T15:22:22.810Z,99082.84
2023-02-18T15:24:51.705Z,99060.34
2023-02-18T15:27:22.855Z,99079.56
2023-02-18T15:29:53.136Z,99063.69
2023-02-18T15:32:25.198Z,99082.19
2023-02-18T15:34:56.414Z,99064.19
2023-02-18T15:37:23.238Z,99075.38
2023-02-18T15:39:50.600Z,99083.59
2023-02-18T15:42:30.196Z,99085.22
2023-02-18T15:45:05.179Z,99094.19
2023-02-18T15:47:33.021Z,99096.84
2023-02-18T15:50:02.980Z,99089.69
2023-02-18T15:52:33.234Z,99096.00
2023-02-18T15:55:11.422Z,99095.19
2023-02-18T15:57:40.133Z,99094.56
2023-02-18T16:00:25.762Z,99084.78
2023-02-18T16:03:15.194Z,99093.91
2023-02-18T16:05:42.872Z,99094.94
2023-02-18T16:08:17.178Z,99080.13
2023-02-18T16:10:53.461Z,99104.03
2023-02-18T16:13:21.672Z,99088.72
2023-02-18T16:15:50.841Z,99094.03
2023-02-18T16:18:36.037Z,99103.94
2023-02-18T16:21:17.178Z,99105.16
2023-02-18T16:23:56.535Z,99102.03
2023-02-18T16:26:32.714Z,99108.00
2023-02-18T16:29:13.884Z,99120.38
2023-02-18T16:31:42.345Z,99108.97
2023-02-18T16:34:09.086Z,99108.06
2023-02-18T16:36:35.818Z,99096.88
2023-02-18T16:39:03.318Z,99114.47
2023-02-18T16:41:30.374Z,99116.28
2023-02-18T16:43:57.801Z,99106.09
2023-02-18T16:46:25.322Z,99102.78
2023-02-18T16:48:57.438Z,99113.34
2023-02-18T16:51:30.084Z,99117.03
2023-02-18T16:53:57.528Z,99120.66
2023-02-18T16:56:33.193Z,99112.91
2023-02-18T16:59:00.274Z,99114.94
2023-02-18T17:01:31.008Z,99103.16
2023-02-18T17:04:02.193Z,99110.44
2023-02-18T17:06:29.700Z,99124.13
2023-02-18T17:08:56.524Z,99130.25
2023-02-18T17:11:26.059Z,99126.75
2023-02-18T17:13:54.509Z,99122.13
2023-02-18T17:16:22.083Z,99126.41
2023-02-18T17:18:48.865Z,99124.59
2023-02-18T17:21:18.354Z,99126.41
2023-02-18T17:23:45.449Z,99127.41
2023-02-18T17:26:26.798Z,99117.22
2023-02-18T17:28:55.344Z,99125.59
2023-02-18T17:31:26.517Z,99123.13
2023-02-18T17:33:55.390Z,99125.78
2023-02-18T17:36:22.951Z,99128.41
2023-02-18T17:38:49.623Z,99112.66
2023-02-18T17:41:16.880Z,99111.00
2023-02-18T17:43:43.711Z,99127.25
2023-02-18T17:46:13.432Z,99121.09
2023-02-18T17:48:41.592Z,99124.59
2023-02-18T17:51:08.356Z,99123.94
2023-02-18T17:53:35.421Z,99122.56
2023-02-18T17:56:02.475Z,99115.75
2023-02-18T17:58:29.115Z,99119.50
2023-02-18T18:00:57.826Z,99119.50
2023-02-18T18:03:24.917Z,99133.34
2023-02-18T18:05:52.266Z,99124.78
2023-02-18T18:08:19.310Z,99125.78
2023-02-18T18:10:52.358Z,99129.03
2023-02-18T18:13:23.064Z,99128.41
2023-02-18T18:15:51.332Z,99130.25
2023-02-18T18:18:18.982Z,99133.06
2023-02-18T18:20:52.443Z,99131.41
2023-02-18T18:23:21.384Z,99134.06
2023-02-18T18:25:53.089Z,99130.63
2023-02-18T18:28:20.446Z,99117.66
2023-02-18T18:30:49.783Z,99135.91
2023-02-18T18:33:20.819Z,99143.84
2023-02-18T18:35:50.067Z,99136.72
2023-02-18T18:38:20.521Z,99136.72
2023-02-18T18:40:48.924Z,99139.97
2023-02-18T18:43:26.371Z,99128.59
2023-02-18T18:45:54.169Z,99127.03
2023-02-18T18:48:21.702Z,99126.31
2023-02-18T18:50:49.555Z,99135.72
2023-02-18T18:53:20.055Z,99135.72
2023-02-18T18:55:48.147Z,99135.72
2023-02-18T18:58:20.491Z,99133.06
2023-02-18T19:00:50.960Z,99125.88
2023-02-18T19:03:18.291Z,99124.22
2023-02-18T19:05:47.254Z,99137.16
2023-02-18T19:08:17.924Z,99141.63
2023-02-18T19:10:49.962Z,99136.34
2023-02-18T19:13:18.505Z,99141.63
2023-02-18T19:15:45.617Z,99140.66
2023-02-18T19:18:18.728Z,99139.63
2023-02-18T19:20:47.548Z,99131.50
2023-02-18T19:23:14.333Z,99124.47
2023-02-18T19:25:41.281Z,99107.63
2023-02-18T19:28:13.848Z,99127.69
2023-02-18T19:30:43.906Z,99136.44
2023-02-18T19:33:13.442Z,99105.78
2023-02-18T19:35:41.396Z,99110.28
2023-02-18T19:38:12.728Z,99126.69
2023-02-18T19:40:40.189Z,99118.09
2023-02-18T19:43:07.737Z,99122.03
2023-02-18T19:45:35.015Z,99120.56
2023-02-18T19:48:02.210Z,99108.81
2023-02-18T19:50:32.798Z,99091.56
2023-02-18T19:53:00.028Z,99107.16
2023-02-18T19:55:27.802Z,99093.31
2023-02-18T19:57:54.642Z,99108.81
2023-02-18T20:00:25.154Z,99106.34
2023-02-18T20:02:52.495Z,99090.75
2023-02-18T20:05:19.484Z,99102.88
2023-02-18T20:07:46.863Z,99079.53
2023-02-18T20:10:16.258Z,99085.09
2023-02-18T20:12:43.295Z,99107.34
2023-02-18T20:15:10.169Z,99090.09
2023-02-18T20:17:38.935Z,99110.34
2023-02-18T20:20:06.363Z,99109.53
2023-02-18T20:22:38.076Z,99112.53
2023-02-18T20:25:07.789Z,99116.84
2023-02-18T20:27:42.984Z,99114.38
2023-02-18T20:30:34.034Z,99104.06
2023-02-18T20:33:01.243Z,99111.91
2023-02-18T20:35:30.613Z,99094.69
2023-02-18T20:37:57.842Z,99112.28
2023-02-18T20:40:27.747Z,99092.56
2023-02-18T20:42:54.842Z,99103.44
2023-02-18T20:45:21.512Z,99106.06
2023-02-18T20:47:48.255Z,99109.72
2023-02-18T20:50:15.915Z,99104.34
2023-02-18T20:52:42.629Z,99096.28
2023-02-18T20:55:09.329Z,99090.38
2023-02-18T20:57:36.388Z,99116.53
2023-02-18T21:00:04.658Z,99100.66
2023-02-18T21:02:31.315Z,99116.53
2023-02-18T21:04:58.321Z,99102.50
2023-02-18T21:07:25.188Z,99082.44
2023-02-18T21:09:52.122Z,99100.03
2023-02-18T21:12:19.303Z,99106.12
2023-02-18T21:14:46.091Z,99105.34
2023-02-18T21:17:12.750Z,99103.88
2023-02-18T21:19:39.831Z,99103.88
2023-02-18T21:22:06.540Z,99099.78
2023-02-18T21:24:33.241Z,99098.12
2023-02-18T21:27:00.509Z,99102.78
2023-02-18T21:29:27.401Z,99101.31
2023-02-18T21:31:54.141Z,99102.31
2023-02-18T21:34:22.800Z,99094.56
2023-02-18T21:36:49.608Z,99108.78
2023-02-18T21:39:16.413Z,99107.31
2023-02-18T21:41:43.715Z,99100.19
2023-02-18T21:44:10.762Z,99115.44
2023-02-18T21:46:37.801Z,99122.88
2023-02-18T21:49:06.107Z,99104.81
2023-02-18T21:51:56.843Z,99129.53
2023-02-18T21:54:29.819Z,99113.09
2023-02-18T21:56:58.472Z,99113.91
2023-02-18T21:59:27.703Z,99121.50
2023-02-18T22:01:55.236Z,99134.88
2023-02-18T22:04:23.166Z,99126.31
2023-02-18T22:06:49.841Z,99116.16
2023-02-18T22:09:16.665Z,99131.31
2023-02-18T22:11:43.896Z,99130.66
2023-02-18T22:14:12.663Z,99125.56
2023-02-18T22:16:40.840Z,99134.47
2023-02-18T22:19:08.062Z,99133.03
2023-02-18T22:21:35.004Z,99118.06
2023-02-18T22:24:02.314Z,99142.94
2023-02-18T22:26:29.311Z,99130.75
2023-02-18T22:28:58.042Z,99139.66
2023-02-18T22:31:27.135Z,99135.09
2023-02-18T22:33:55.744Z,99147.75
2023-02-18T22:36:23.896Z,99147.75
2023-02-18T22:38:51.339Z,99128.50
2023-02-18T22:41:21.020Z,99142.03
2023-02-18T22:43:47.816Z,99146.47
2023-02-18T22:46:18.331Z,99112.91
2023-02-18T22:48:45.783Z,99143.19
2023-02-18T22:51:23.437Z,99146.00
2023-02-18T22:53:53.001Z,99147.97
2023-02-18T22:56:20.831Z,99149.97
2023-02-18T22:58:50.388Z,99145.06
2023-02-18T23:01:24.311Z,99154.13
2023-02-18T23:03:53.013Z,99139.19
2023-02-18T23:06:21.771Z,99152.53
2023-02-18T23:08:49.544Z,99146.75
2023-02-18T23:11:18.979Z,99155.87
2023-02-18T23:14:06.604Z,99159.31
2023-02-18T23:16:53.882Z,99147.97
2023-02-18T23:19:21.362Z,99163.13
2023-02-18T23:21:48.172Z,99168.56
2023-02-18T23:24:14.915Z,99164.31
2023-02-18T23:26:41.964Z,99161.34
2023-02-18T23:29:09.320Z,99161.00
2023-02-18T23:31:38.982Z,99154.47
2023-02-18T23:34:08.130Z,99147.53
2023-02-18T23:36:35.788Z,99163.37
2023-02-18T23:39:05.717Z,99169.16
2023-02-18T23:41:32.621Z,99178.69
2023-02-18T23:43:59.241Z,99185.00
2023-02-18T23:46:26.774Z,99169.53
2023-02-18T23:48:53.977Z,99170.03
2023-02-18T23:51:23.300Z,99156.56
2023-02-18T23:53:50.478Z,99188.16
2023-02-18T23:56:25.281Z,99188.50
2023-02-18T23:58:54.938Z,99186.84
